Time;durP1;ratioP1;P1;durP2;ratioP2;P2;SDS_P1;SDS_P2;PMS_P1;PMS_P2;Temp;Humidity;BMP_temperature;BMP_pressure;BME280_temperature;BME280_humidity;BME280_pressure;Samples;Min_cycle;Max_cycle;Signal;HPM_P1;HPM_P2
2022/02/06 00:05:24;;;;;;;;;2.00;2.00;;;;;9.17;63.25;101533.69;5033346;28;45808;-78
2022/02/06 00:07:50;;;;;;;;;3.50;1.25;;;;;9.10;63.64;101529.66;5016709;28;47112;-75
2022/02/06 00:10:17;;;;;;;;;3.00;2.00;;;;;9.16;63.81;101533.75;5033815;28;45705;-78
2022/02/06 00:12:42;;;;;;;;;5.00;2.50;;;;;9.16;63.47;101521.53;5033865;28;45500;-76
2022/02/06 00:15:09;;;;;;;;;2.00;2.00;;;;;9.16;63.61;101502.38;5040979;28;47184;-77
2022/02/06 00:21:00;;;;;;;;;3.00;1.75;;;;;9.14;63.74;101472.84;5056132;28;45611;-77
2022/02/06 00:23:28;;;;;;;;;3.00;2.00;;;;;9.16;63.90;101484.94;5056584;28;45748;-81
2022/02/06 00:28:33;;;;;;;;;2.00;2.00;;;;;9.18;64.00;101488.28;5055742;28;45948;-79
2022/02/06 00:39:15;;;;;;;;;3.00;1.00;;;;;9.16;64.33;101492.75;5055672;28;45982;-76
2022/02/06 00:41:41;;;;;;;;;2.00;1.75;;;;;9.17;64.07;101499.69;5056175;28;45937;-77
2022/02/06 00:44:08;;;;;;;;;3.00;2.00;;;;;9.17;64.36;101472.69;5055652;28;45629;-77
2022/02/06 00:46:37;;;;;;;;;4.00;2.00;;;;;9.17;64.26;101467.47;5055013;28;46497;-79
2022/02/06 00:49:13;;;;;;;;;1.75;1.00;;;;;9.13;64.21;101461.53;5055149;28;46113;-78
2022/02/06 00:51:57;;;;;;;;;3.00;2.00;;;;;9.17;64.38;101465.72;5055010;28;45613;-78
2022/02/06 00:54:23;;;;;;;;;2.75;2.00;;;;;9.12;64.36;101441.53;5054894;28;45527;-78
2022/02/06 00:56:48;;;;;;;;;1.00;1.00;;;;;9.18;64.22;101443.84;5054173;28;46402;-77
2022/02/06 00:59:13;;;;;;;;;5.00;1.00;;;;;9.16;64.18;101452.69;5055137;28;46169;-77
2022/02/06 01:01:42;;;;;;;;;2.00;1.00;;;;;9.21;64.34;101466.38;5055459;28;45799;-78
2022/02/06 01:04:13;;;;;;;;;1.00;1.00;;;;;9.13;64.51;101445.00;5054161;28;45609;-75
2022/02/06 01:06:39;;;;;;;;;2.00;1.00;;;;;9.14;64.33;101436.25;5054699;28;46440;-76
2022/02/06 01:09:04;;;;;;;;;2.00;1.75;;;;;9.15;64.72;101444.00;5055167;28;45614;-78
2022/02/06 01:11:32;;;;;;;;;1.75;1.75;;;;;9.17;64.61;101452.63;5055127;28;45611;-78
2022/02/06 01:14:24;;;;;;;;;2.00;2.00;;;;;9.18;64.64;101456.06;5055435;28;45641;-75
2022/02/06 01:17:06;;;;;;;;;1.50;1.00;;;;;9.11;64.44;101454.72;5055530;28;46837;-75
2022/02/06 01:19:43;;;;;;;;;2.00;2.00;;;;;9.17;64.92;101454.41;5055185;28;45986;-76
2022/02/06 01:22:12;;;;;;;;;1.75;1.25;;;;;9.18;64.77;101466.53;5039728;28;45617;-75
2022/02/06 01:24:55;;;;;;;;;2.75;2.00;;;;;9.15;64.50;101457.09;5055411;28;45507;-75
2022/02/06 01:27:31;;;;;;;;;3.00;1.00;;;;;9.17;64.89;101452.63;5055071;28;47539;-76
2022/02/06 01:30:02;;;;;;;;;2.75;2.00;;;;;9.20;64.65;101452.47;5055014;28;47227;-77
2022/02/06 01:32:39;;;;;;;;;2.50;1.75;;;;;9.19;64.65;101432.47;5036963;28;45827;-79
2022/02/06 01:35:15;;;;;;;;;2.00;1.00;;;;;9.18;64.80;101427.31;5054886;28;45897;-77
2022/02/06 01:37:49;;;;;;;;;3.00;2.00;;;;;9.22;64.63;101445.41;5055044;28;46530;-75
2022/02/06 01:40:41;;;;;;;;;0.00;0.00;;;;;9.23;64.87;101449.69;5055288;28;46129;-76
2022/02/06 01:43:17;;;;;;;;;1.25;1.25;;;;;9.24;64.66;101451.38;5055290;28;45481;-77
2022/02/06 02:11:52;;;;;;;;;1.00;1.00;;;;;9.24;64.75;101374.69;4972787;28;45810;-77
2022/02/06 02:14:23;;;;;;;;;4.00;1.00;;;;;9.25;64.83;101374.63;4972475;28;46052;-77
2022/02/06 02:31:05;;;;;;;;;1.75;1.00;;;;;9.30;64.50;101370.91;4972825;28;45747;-77
2022/02/06 02:47:15;;;;;;;;;0.00;0.00;;;;;9.27;64.78;101364.09;4933679;28;46099;-80
2022/02/06 02:49:47;;;;;;;;;2.00;1.00;;;;;9.29;64.67;101367.44;4930802;28;45888;-76
2022/02/06 02:52:22;;;;;;;;;1.50;1.00;;;;;9.32;65.14;101363.84;4933606;28;45880;-78
2022/02/06 02:54:51;;;;;;;;;2.00;2.00;;;;;9.29;64.88;101354.38;4917303;28;46550;-77
2022/02/06 02:57:27;;;;;;;;;1.00;1.00;;;;;9.30;65.12;101360.47;4933839;28;46276;-76
2022/02/06 03:00:19;;;;;;;;;2.00;1.25;;;;;9.32;65.18;101342.94;4933633;28;45792;-78
2022/02/06 03:03:48;;;;;;;;;2.00;1.00;;;;;9.31;65.29;101346.47;4964767;28;45544;-76
2022/02/06 03:06:13;;;;;;;;;2.00;1.25;;;;;9.23;65.42;101321.56;4972690;28;46591;-76
2022/02/06 03:08:41;;;;;;;;;2.50;2.00;;;;;9.28;65.48;101308.28;4974161;28;47183;-76
2022/02/06 03:11:09;;;;;;;;;2.50;2.00;;;;;9.20;65.36;101294.75;4974456;28;45346;-75
2022/02/06 03:18:52;;;;;;;;;1.25;1.25;;;;;9.31;65.59;101294.16;5033584;28;46156;-78
2022/02/06 03:21:21;;;;;;;;;0.00;0.00;;;;;9.31;65.78;101268.03;5033675;28;45587;-78
2022/02/06 03:23:53;;;;;;;;;2.00;2.00;;;;;9.33;65.65;101271.41;5033798;28;45767;-77
2022/02/06 03:26:20;;;;;;;;;2.00;1.00;;;;;9.27;66.33;101268.22;5033640;28;46335;-76
2022/02/06 03:28:47;;;;;;;;;1.00;1.00;;;;;9.28;66.09;101272.47;5015459;28;48569;-77
2022/02/06 03:31:13;;;;;;;;;1.00;1.00;;;;;9.26;66.36;101276.13;5018667;28;45871;-76
2022/02/06 03:33:39;;;;;;;;;2.00;1.00;;;;;9.27;66.42;101285.66;5036856;28;45743;-78
2022/02/06 03:36:04;;;;;;;;;2.50;2.00;;;;;9.26;66.30;101276.13;5019111;28;47030;-77
2022/02/06 03:38:30;;;;;;;;;2.00;2.00;;;;;9.25;66.44;101290.97;5036748;28;46831;-76
2022/02/06 03:41:05;;;;;;;;;3.00;2.25;;;;;9.23;66.43;101287.56;5036750;28;45693;-77
2022/02/06 03:46:12;;;;;;;;;2.00;1.00;;;;;9.22;66.53;101293.75;5036171;28;45631;-80
2022/02/06 03:51:17;;;;;;;;;2.00;1.75;;;;;9.22;67.21;101275.47;5036396;28;45702;-78
2022/02/06 03:53:44;;;;;;;;;1.00;1.00;;;;;9.22;66.91;101278.06;5037308;28;45845;-79
2022/02/06 03:56:10;;;;;;;;;1.75;1.00;;;;;9.23;66.95;101274.50;5036116;28;45853;-78
2022/02/06 03:58:35;;;;;;;;;3.00;2.00;;;;;9.24;66.97;101254.44;5036321;28;47037;-77
2022/02/06 04:01:00;;;;;;;;;4.75;2.00;;;;;9.25;67.11;101284.88;5036381;28;45615;-76
2022/02/06 04:03:26;;;;;;;;;1.00;0.00;;;;;9.24;67.08;101257.06;5036285;28;45771;-76
2022/02/06 04:05:53;;;;;;;;;2.50;2.00;;;;;9.27;67.01;101262.97;5034665;28;47784;-75
2022/02/06 04:08:19;;;;;;;;;2.00;1.00;;;;;9.26;67.04;101250.81;5036188;28;46241;-74
2022/02/06 04:10:50;;;;;;;;;0.25;0.00;;;;;9.24;67.36;101259.66;5035145;28;45764;-75
2022/02/06 04:13:21;;;;;;;;;3.25;1.25;;;;;9.27;67.28;101256.91;5036267;28;45507;-76
2022/02/06 04:15:54;;;;;;;;;5.00;2.00;;;;;9.23;67.41;101255.41;5035996;28;45530;-77
2022/02/06 04:18:28;;;;;;;;;1.25;1.00;;;;;9.24;67.40;101263.13;5035903;28;47105;-75
2022/02/06 04:20:53;;;;;;;;;2.75;2.00;;;;;9.25;67.60;101254.38;5035877;28;45645;-74
2022/02/06 04:23:19;;;;;;;;;2.00;1.00;;;;;9.27;67.37;101249.06;5035959;28;45677;-73
2022/02/06 04:25:45;;;;;;;;;2.00;2.00;;;;;9.28;67.31;101240.28;5035813;28;46559;-76
2022/02/06 04:28:10;;;;;;;;;2.25;2.00;;;;;9.29;67.20;101239.34;5018038;28;46540;-76
2022/02/06 04:30:35;;;;;;;;;3.00;1.00;;;;;9.19;67.84;101205.03;5036038;28;45593;-75
2022/02/06 04:33:04;;;;;;;;;3.50;2.25;;;;;9.26;67.78;101216.84;5035899;28;45601;-76
2022/02/06 04:35:34;;;;;;;;;2.00;2.00;;;;;9.29;67.79;101207.97;5035534;28;45622;-77
2022/02/06 05:30:15;;;;;;;;;1.75;1.75;;;;;9.30;68.23;101110.31;4992847;28;46091;-74
2022/02/06 05:32:58;;;;;;;;;1.00;1.00;;;;;9.33;68.36;101114.53;4992704;28;46166;-74
2022/02/06 05:35:24;;;;;;;;;2.25;2.25;;;;;9.31;68.28;101087.63;4992850;28;45826;-75
2022/02/06 05:37:50;;;;;;;;;1.00;0.75;;;;;9.30;68.25;101094.63;4976597;28;45852;-75
2022/02/06 05:40:16;;;;;;;;;3.50;2.00;;;;;9.23;68.39;101090.69;5036081;28;46309;-75
2022/02/06 05:42:44;;;;;;;;;1.00;1.00;;;;;9.31;68.16;101104.16;5054469;28;46290;-75
2022/02/06 05:45:11;;;;;;;;;1.25;1.25;;;;;9.33;68.47;101096.22;5054487;28;45708;-76
2022/02/06 05:47:37;;;;;;;;;1.00;0.00;;;;;9.35;68.13;101096.97;5055169;28;45642;-77
2022/02/06 05:50:04;;;;;;;;;2.00;2.00;;;;;9.37;68.50;101100.34;5054633;28;47484;-76
2022/02/06 05:52:30;;;;;;;;;1.00;1.00;;;;;9.35;68.59;101095.19;5054982;28;46560;-77
2022/02/06 05:54:57;;;;;;;;;2.50;2.00;;;;;9.35;68.35;101089.97;5054427;28;45628;-76
2022/02/06 05:57:22;;;;;;;;;2.00;1.25;;;;;9.37;68.49;101082.03;5055279;28;45594;-78
2022/02/06 05:59:49;;;;;;;;;1.25;1.00;;;;;9.37;68.43;101097.72;5054689;28;45681;-77
2022/02/06 06:02:15;;;;;;;;;1.25;1.00;;;;;9.24;68.36;101072.28;5036755;28;46396;-76
2022/02/06 06:04:40;;;;;;;;;2.00;1.75;;;;;9.39;68.21;101088.88;5054754;28;45912;-78
2022/02/06 06:07:05;;;;;;;;;2.25;1.25;;;;;9.39;68.58;101091.47;5054639;28;45661;-78
2022/02/06 06:09:31;;;;;;;;;1.00;1.00;;;;;9.39;68.90;101081.03;5054372;28;46560;-77
2022/02/06 06:11:56;;;;;;;;;2.50;1.50;;;;;9.38;68.76;101081.94;5054421;28;46078;-77
2022/02/06 06:14:28;;;;;;;;;1.50;1.00;;;;;9.31;69.01;101082.38;5069803;28;45748;-75
2022/02/06 06:16:53;;;;;;;;;2.00;2.00;;;;;9.38;68.67;101075.88;5054705;28;45523;-77
2022/02/06 06:19:19;;;;;;;;;2.00;1.00;;;;;9.33;68.57;101073.53;5054270;28;47210;-78
2022/02/06 06:21:46;;;;;;;;;1.00;1.00;;;;;9.37;68.80;101075.03;5053003;28;47057;-78
2022/02/06 06:24:16;;;;;;;;;1.75;1.75;;;;;9.25;69.02;101046.97;5054332;28;45708;-81
2022/02/06 06:26:42;;;;;;;;;2.00;2.00;;;;;9.37;68.84;101054.13;5054689;28;45872;-79
2022/02/06 06:29:07;;;;;;;;;2.00;2.00;;;;;9.40;69.07;101051.31;5054278;28;45467;-78
2022/02/06 06:31:33;;;;;;;;;1.00;1.00;;;;;9.40;68.89;101047.84;5069969;28;45562;-78
2022/02/06 06:33:58;;;;;;;;;3.00;2.00;;;;;9.40;69.09;101040.00;5054542;28;45825;-79
2022/02/06 06:36:24;;;;;;;;;3.00;1.00;;;;;9.41;69.02;101055.59;5055188;28;45738;-78
2022/02/06 06:38:51;;;;;;;;;1.00;1.00;;;;;9.43;69.31;101050.28;5056978;28;46069;-77
2022/02/06 06:41:17;;;;;;;;;1.00;1.00;;;;;9.39;68.83;101048.81;5055671;28;46168;-77
2022/02/06 06:43:43;;;;;;;;;1.75;0.75;;;;;9.43;69.16;101048.53;5039052;28;46023;-77
2022/02/06 06:46:09;;;;;;;;;2.25;0.00;;;;;9.46;69.36;101050.94;5058199;28;45662;-77
2022/02/06 06:48:34;;;;;;;;;1.75;1.00;;;;;9.43;69.28;101050.28;5061161;28;45777;-76
2022/02/06 06:51:00;;;;;;;;;1.25;1.00;;;;;9.48;69.23;101045.63;5062988;28;45830;-77
2022/02/06 06:53:27;;;;;;;;;2.75;1.00;;;;;9.41;69.44;101019.00;5063186;28;45580;-76
2022/02/06 06:55:58;;;;;;;;;1.75;1.00;;;;;9.49;69.45;101029.00;5066549;28;45712;-76
2022/02/06 06:58:30;;;;;;;;;3.00;1.50;;;;;9.42;69.32;101015.47;5071191;28;46536;-77
2022/02/06 07:03:26;;;;;;;;;2.00;1.00;;;;;9.53;69.70;101030.50;5075483;28;45123;-77
2022/02/06 07:05:52;;;;;;;;;1.00;1.00;;;;;9.52;69.57;101006.13;5079349;28;45502;-76
2022/02/06 07:08:19;;;;;;;;;1.00;1.00;;;;;9.54;69.55;101009.50;5077682;28;45387;-76
2022/02/06 07:10:45;;;;;;;;;2.00;2.00;;;;;9.54;69.74;101006.88;5080820;28;46203;-75
2022/02/06 07:13:13;;;;;;;;;1.50;1.00;;;;;9.51;69.70;100998.34;5073285;28;45594;-76
2022/02/06 07:15:38;;;;;;;;;1.25;1.00;;;;;9.54;69.64;101009.50;5061442;28;45654;-75
2022/02/06 07:18:13;;;;;;;;;1.50;1.00;;;;;9.55;69.71;101005.13;5059365;28;45655;-76
2022/02/06 07:20:41;;;;;;;;;2.00;0.00;;;;;9.52;69.75;100997.44;5057964;28;46071;-76
2022/02/06 07:23:09;;;;;;;;;1.00;1.00;;;;;9.53;69.93;101014.81;5058369;28;45757;-76
2022/02/06 07:25:48;;;;;;;;;1.75;1.00;;;;;9.59;70.35;101006.59;5059628;28;45487;-76
2022/02/06 07:28:18;;;;;;;;;2.00;1.00;;;;;9.57;70.25;100992.75;5060705;28;47336;-77
2022/02/06 07:30:45;;;;;;;;;1.00;1.00;;;;;9.56;70.47;100991.91;5062702;28;46893;-77
2022/02/06 07:33:13;;;;;;;;;0.75;0.75;;;;;9.48;71.21;100980.25;5056286;28;45606;-75
2022/02/06 07:35:38;;;;;;;;;1.00;1.00;;;;;9.53;71.11;100993.88;5056456;28;45814;-76
2022/02/06 07:38:04;;;;;;;;;2.00;1.00;;;;;9.48;70.97;100981.09;5056486;28;46737;-77
2022/02/06 07:40:29;;;;;;;;;1.25;1.00;;;;;9.52;70.71;100992.19;5056501;28;46034;-79
2022/02/06 07:42:55;;;;;;;;;1.50;0.25;;;;;9.42;70.89;100959.69;5056369;28;45926;-76
2022/02/06 07:45:20;;;;;;;;;1.00;1.00;;;;;9.51;70.82;100970.44;5056235;28;45551;-77
2022/02/06 07:47:47;;;;;;;;;1.50;1.00;;;;;9.51;70.83;100949.50;5056705;28;46383;-77
2022/02/06 07:50:14;;;;;;;;;1.00;1.00;;;;;9.54;70.59;100953.72;5056478;28;47095;-77
2022/02/06 07:52:40;;;;;;;;;0.00;0.00;;;;;9.53;70.64;100944.19;5056714;28;45798;-77
2022/02/06 07:55:07;;;;;;;;;1.00;1.00;;;;;9.52;70.41;100940.75;5056707;28;45710;-75
2022/02/06 07:57:33;;;;;;;;;0.50;0.00;;;;;9.46;70.42;100938.50;5038497;28;46480;-75
2022/02/06 08:00:00;;;;;;;;;1.00;0.00;;;;;9.59;70.72;100947.28;5056267;28;45965;-77
2022/02/06 08:02:25;;;;;;;;;1.00;0.50;;;;;9.56;70.58;100915.22;5056273;28;45515;-77
2022/02/06 08:04:51;;;;;;;;;1.00;1.00;;;;;9.43;70.62;100894.25;5071673;28;45918;-78
2022/02/06 08:07:17;;;;;;;;;0.25;0.25;;;;;9.53;70.16;100892.72;5055976;28;47330;-78
2022/02/06 08:12:15;;;;;;;;;1.25;1.00;;;;;9.66;70.75;100911.94;5056366;28;45600;-77
2022/02/06 08:17:16;;;;;;;;;1.00;1.00;;;;;9.66;70.29;100891.00;5054269;28;45738;-77
2022/02/06 08:19:43;;;;;;;;;0.00;0.00;;;;;9.73;70.51;100903.72;5055047;28;46112;-77
2022/02/06 08:22:09;;;;;;;;;1.00;0.50;;;;;9.76;70.60;100914.84;5037283;28;45810;-76
2022/02/06 08:24:34;;;;;;;;;0.25;0.00;;;;;9.77;70.89;100902.59;5037171;28;45560;-78
2022/02/06 08:27:00;;;;;;;;;2.50;0.75;;;;;9.78;70.44;100881.56;5055334;28;46518;-77
2022/02/06 08:29:25;;;;;;;;;2.00;1.00;;;;;9.69;70.44;100876.91;5055566;28;46847;-77
2022/02/06 08:31:50;;;;;;;;;2.25;1.00;;;;;9.81;70.73;100888.38;5055659;28;45525;-78
2022/02/06 08:34:16;;;;;;;;;0.25;0.00;;;;;9.82;70.76;100904.00;5057004;28;45742;-76
2022/02/06 08:40:12;;;;;;;;;1.00;1.00;;;;;9.82;71.03;100885.69;5056500;28;46047;-76
2022/02/06 08:42:37;;;;;;;;;0.00;0.00;;;;;9.85;70.94;100871.53;5056270;28;45746;-77
2022/02/06 08:45:04;;;;;;;;;1.00;0.25;;;;;9.83;71.29;100855.94;5055593;28;45526;-77
2022/02/06 08:47:30;;;;;;;;;2.25;1.00;;;;;9.87;71.32;100873.13;5055329;28;45666;-76
2022/02/06 08:49:56;;;;;;;;;1.75;1.00;;;;;9.87;71.29;100875.75;5054588;28;46798;-78
2022/02/06 08:52:21;;;;;;;;;0.75;0.75;;;;;9.87;71.42;100878.38;5055646;28;45654;-77
2022/02/06 08:54:47;;;;;;;;;0.25;0.25;;;;;9.84;71.48;100865.47;5054744;28;45643;-75
2022/02/06 08:57:20;;;;;;;;;2.00;0.75;;;;;9.89;71.97;100865.16;5054118;28;46640;-77
2022/02/06 08:59:45;;;;;;;;;2.00;1.50;;;;;9.88;71.84;100864.31;5054611;28;45992;-76
2022/02/06 09:02:11;;;;;;;;;3.00;1.50;;;;;9.84;71.89;100857.63;5036959;28;45477;-76
2022/02/06 09:04:36;;;;;;;;;1.50;1.50;;;;;9.75;72.65;100824.19;5054637;28;45783;-77
2022/02/06 09:10:23;;;;;;;;;3.25;3.00;;;;;9.82;72.40;100845.59;5055239;28;46037;-78
2022/02/06 09:12:53;;;;;;;;;1.25;1.00;;;;;9.86;72.67;100841.81;5055230;28;45654;-75
2022/02/06 09:15:19;;;;;;;;;3.25;1.75;;;;;9.85;72.67;100821.81;5054814;28;45527;-75
2022/02/06 09:17:45;;;;;;;;;1.00;0.00;;;;;9.82;73.21;100825.50;5055181;28;46522;-77
2022/02/06 09:20:12;;;;;;;;;2.00;1.25;;;;;9.88;73.16;100837.34;5055032;28;46872;-78
2022/02/06 09:22:38;;;;;;;;;1.00;1.00;;;;;9.87;73.37;100839.13;5055137;28;45827;-76
2022/02/06 09:25:04;;;;;;;;;2.25;2.00;;;;;9.86;73.47;100829.59;5055077;28;45806;-80
2022/02/06 09:27:29;;;;;;;;;2.00;1.75;;;;;9.91;73.58;100813.59;5054552;28;46664;-78
2022/02/06 09:29:55;;;;;;;;;0.75;0.75;;;;;9.87;73.71;100799.03;5037020;28;47213;-79
2022/02/06 09:37:14;;;;;;;;;2.00;2.00;;;;;10.03;73.93;100803.16;5054783;28;45646;-77
2022/02/06 09:39:41;;;;;;;;;2.25;1.00;;;;;10.07;74.17;100817.72;5054744;28;46100;-77
2022/02/06 09:42:08;;;;;;;;;1.00;1.00;;;;;10.09;73.70;100821.06;5053871;28;45621;-77
2022/02/06 09:44:34;;;;;;;;;2.00;1.00;;;;;10.05;74.00;100796.03;5055044;28;45648;-78
2022/02/06 09:47:00;;;;;;;;;1.00;1.00;;;;;10.16;74.35;100815.41;5054958;28;46430;-76
2022/02/06 09:49:28;;;;;;;;;2.00;0.00;;;;;10.09;73.99;100780.97;5054796;28;46180;-77
2022/02/06 09:51:54;;;;;;;;;0.00;0.00;;;;;10.20;74.34;100809.09;5054737;28;45610;-76
2022/02/06 09:54:22;;;;;;;;;1.50;1.00;;;;;10.23;74.16;100795.78;5054243;28;45704;-76
2022/02/06 09:56:51;;;;;;;;;4.50;4.50;;;;;10.24;73.89;100798.31;5054386;28;47355;-75
2022/02/06 09:59:20;;;;;;;;;2.50;1.00;;;;;10.26;74.13;100796.41;5054305;28;47096;-75
2022/02/06 10:01:54;;;;;;;;;1.00;1.00;;;;;10.27;74.01;100802.50;5054177;28;45732;-75
2022/02/06 10:04:22;;;;;;;;;2.50;2.50;;;;;10.28;73.91;100796.31;5053007;28;45694;-74
2022/02/06 10:07:09;;;;;;;;;2.75;2.00;;;;;10.30;74.07;100776.97;5055543;28;46885;-74
2022/02/06 10:09:40;;;;;;;;;1.00;1.00;;;;;10.32;74.39;100774.22;5056433;28;45645;-75
2022/02/06 10:12:07;;;;;;;;;1.00;1.00;;;;;10.34;74.19;100788.06;5056447;28;45637;-75
2022/02/06 10:14:34;;;;;;;;;3.25;2.00;;;;;10.34;74.26;100786.28;5056045;28;45593;-75
2022/02/06 10:17:00;;;;;;;;;7.00;3.00;;;;;10.30;74.44;100768.25;5055431;28;47701;-75
2022/02/06 10:19:25;;;;;;;;;2.00;1.25;;;;;10.33;74.45;100776.75;5054931;28;46921;-74
2022/02/06 10:21:51;;;;;;;;;0.00;0.00;;;;;10.36;74.30;100779.16;5052581;28;45531;-75
2022/02/06 10:24:27;;;;;;;;;1.00;1.00;;;;;10.43;74.31;100790.03;5054387;28;45468;-75
2022/02/06 10:29:47;;;;;;;;;0.75;0.75;;;;;10.32;74.60;100767.19;5056232;28;46042;-74
2022/02/06 10:32:16;;;;;;;;;2.00;1.50;;;;;10.47;74.69;100781.88;5056040;28;45727;-76
2022/02/06 10:34:43;;;;;;;;;1.00;0.00;;;;;10.48;74.72;100791.41;5054375;28;45735;-78
2022/02/06 10:37:10;;;;;;;;;1.00;1.00;;;;;10.55;74.96;100798.88;5053978;28;47396;-78
2022/02/06 10:39:38;;;;;;;;;1.50;1.50;;;;;10.59;75.97;100779.38;5054976;28;46336;-75
2022/02/06 10:42:18;;;;;;;;;1.75;1.00;;;;;10.60;76.36;100771.41;5057302;28;45679;-76
2022/02/06 10:44:43;;;;;;;;;3.00;1.00;;;;;10.60;76.36;100778.44;5057221;28;45776;-75
2022/02/06 10:47:08;;;;;;;;;1.00;1.00;;;;;10.67;76.84;100771.84;5055806;28;46230;-76
2022/02/06 10:49:34;;;;;;;;;4.50;3.00;;;;;10.68;76.85;100816.28;5057318;28;46986;-76
2022/02/06 10:52:02;;;;;;;;;1.00;0.75;;;;;10.66;77.31;100781.47;5056925;28;45541;-75
2022/02/06 10:54:27;;;;;;;;;1.00;1.00;;;;;10.73;77.26;100774.88;5056648;28;45676;-75
2022/02/06 10:57:03;;;;;;;;;1.50;1.00;;;;;10.73;76.96;100745.22;5056540;28;45759;-76
2022/02/06 10:59:37;;;;;;;;;0.00;0.00;;;;;10.76;76.96;100751.06;5056670;28;45868;-75
2022/02/06 11:02:06;;;;;;;;;2.00;1.00;;;;;10.82;77.01;100758.50;5056591;28;45756;-75
2022/02/06 11:04:33;;;;;;;;;3.00;1.25;;;;;10.84;76.77;100737.44;5056163;28;45474;-76
2022/02/06 11:07:19;;;;;;;;;0.00;0.00;;;;;10.90;76.58;100740.44;5056823;28;46433;-75
2022/02/06 11:09:45;;;;;;;;;2.25;1.25;;;;;10.97;76.57;100727.75;5056577;28;47091;-75
2022/02/06 11:12:28;;;;;;;;;1.75;1.25;;;;;11.02;76.37;100722.19;5056455;28;45546;-75
2022/02/06 11:15:00;;;;;;;;;1.00;1.00;;;;;10.99;76.03;100706.69;5057404;28;45682;-76
2022/02/06 11:17:27;;;;;;;;;0.00;0.00;;;;;11.11;76.27;100713.69;5057113;28;46671;-77
2022/02/06 11:20:09;;;;;;;;;0.75;0.75;;;;;11.07;76.18;100713.03;5057424;28;46438;-76
2022/02/06 11:22:38;;;;;;;;;2.50;1.00;;;;;11.18;76.09;100712.28;5057583;28;45743;-76
2022/02/06 11:25:07;;;;;;;;;3.00;2.00;;;;;11.24;75.71;100680.38;5057183;28;45707;-76
2022/02/06 11:27:33;;;;;;;;;1.00;1.00;;;;;11.29;75.72;100675.63;5057195;28;46752;-76
2022/02/06 11:30:00;;;;;;;;;1.75;0.50;;;;;11.33;75.26;100658.72;5056558;28;47291;-76
2022/02/06 11:32:27;;;;;;;;;2.00;0.25;;;;;11.40;75.50;100694.03;5057098;28;45702;-75
2022/02/06 11:34:55;;;;;;;;;0.00;0.00;;;;;11.38;75.26;100658.38;5056746;28;45839;-76
2022/02/06 11:43:45;;;;;;;;;0.50;0.50;;;;;11.55;74.26;100665.84;5058332;28;45795;-76
2022/02/06 11:46:18;;;;;;;;;2.00;1.00;;;;;11.57;74.05;100659.53;5057575;28;45803;-78
2022/02/06 11:48:44;;;;;;;;;0.00;0.00;;;;;11.56;73.63;100663.09;5056822;28;45816;-76
2022/02/06 11:54:33;;;;;;;;;1.00;0.75;;;;;11.66;74.07;100684.25;5054848;28;45729;-77
2022/02/06 11:57:17;;;;;;;;;0.25;0.00;;;;;11.67;73.95;100668.38;5054330;28;45718;-77
2022/02/06 12:00:03;;;;;;;;;1.50;1.50;;;;;11.66;74.18;100677.19;5057012;28;45591;-80
2022/02/06 12:02:31;;;;;;;;;0.25;0.00;;;;;11.66;74.73;100669.31;5049730;28;47300;-77
2022/02/06 12:05:08;;;;;;;;;1.00;0.00;;;;;11.65;74.73;100680.81;5058227;28;45788;-79
2022/02/06 12:10:58;;;;;;;;;0.75;0.00;;;;;11.61;76.28;100678.50;5057311;28;45648;-77
2022/02/06 12:13:33;;;;;;;;;1.00;1.00;;;;;11.58;76.19;100673.47;5056919;28;45983;-77
2022/02/06 12:16:03;;;;;;;;;0.00;0.00;;;;;11.58;76.21;100679.56;5056435;28;45619;-77
2022/02/06 12:18:32;;;;;;;;;0.00;0.00;;;;;11.56;76.09;100657.00;5056853;28;45724;-77
2022/02/06 12:21:09;;;;;;;;;1.00;1.00;;;;;11.58;75.89;100668.25;5057534;28;46524;-76
2022/02/06 12:27:20;;;;;;;;;0.50;0.00;;;;;11.68;76.16;100624.59;5056806;28;45655;-75
2022/02/06 12:30:06;;;;;;;;;1.00;0.00;;;;;11.73;76.52;100652.22;5057361;28;45781;-73
2022/02/06 12:32:39;;;;;;;;;1.00;0.00;;;;;11.78;75.93;100641.38;5057742;28;47333;-76
2022/02/06 12:37:56;;;;;;;;;1.00;0.00;;;;;11.85;74.95;100626.00;5055421;28;45545;-75
2022/02/06 12:40:24;;;;;;;;;0.00;0.00;;;;;11.90;75.33;100616.81;5055683;28;45629;-75
2022/02/06 12:42:57;;;;;;;;;0.00;0.00;;;;;11.88;75.19;100610.84;5055407;28;47192;-77
2022/02/06 12:45:23;;;;;;;;;1.00;0.00;;;;;11.91;75.23;100597.50;5055370;28;46006;-77
2022/02/06 12:47:51;;;;;;;;;0.00;0.00;;;;;11.78;75.38;100583.63;5055254;28;45483;-76
2022/02/06 12:50:26;;;;;;;;;0.00;0.00;;;;;11.90;75.68;100624.69;5055728;28;45645;-76
2022/02/06 12:52:53;;;;;;;;;0.00;0.00;;;;;11.90;76.42;100618.59;5055035;28;45529;-77
2022/02/06 12:55:20;;;;;;;;;0.00;0.00;;;;;11.89;76.14;100617.75;5054839;28;45698;-75
2022/02/06 12:57:53;;;;;;;;;0.00;0.00;;;;;11.82;75.38;100597.38;5054721;28;45682;-77
2022/02/06 13:00:39;;;;;;;;;0.00;0.00;;;;;11.90;74.97;100590.56;5054743;28;45903;-73
2022/02/06 13:03:26;;;;;;;;;0.00;0.00;;;;;11.92;75.54;100656.09;5052433;28;46863;-75
2022/02/06 13:05:57;;;;;;;;;0.00;0.00;;;;;11.91;76.46;100621.13;5055031;28;45944;-75
2022/02/06 13:08:23;;;;;;;;;0.00;0.00;;;;;11.88;77.11;100596.88;5054819;28;45918;-73
2022/02/06 13:11:03;;;;;;;;;1.00;0.50;;;;;11.84;77.24;100604.16;5054825;28;45668;-72
2022/02/06 13:13:44;;;;;;;;;1.00;0.00;;;;;11.82;77.45;100607.88;5054594;28;45717;-75
2022/02/06 13:21:42;;;;;;;;;1.00;0.00;;;;;11.73;78.20;100619.88;5055153;28;45720;-77
2022/02/06 13:24:27;;;;;;;;;0.00;0.00;;;;;11.72;79.74;100633.91;5070950;28;46593;-77
2022/02/06 13:27:22;;;;;;;;;0.00;0.00;;;;;11.66;80.28;100614.22;5053824;28;46476;-77
2022/02/06 13:30:04;;;;;;;;;1.00;0.00;;;;;11.53;80.47;100605.63;5055092;28;45696;-73
2022/02/06 13:35:53;;;;;;;;;1.00;0.25;;;;;11.47;80.62;100608.69;4992803;28;46813;-76
2022/02/06 13:41:38;;;;;;;;;0.50;0.00;;;;;11.36;81.17;100590.28;4973750;28;45897;-75
2022/02/06 13:44:14;;;;;;;;;1.00;1.00;;;;;11.35;81.30;100599.09;4973640;28;45950;-79
2022/02/06 13:46:42;;;;;;;;;1.00;0.25;;;;;11.38;81.38;100595.44;4974284;28;48722;-81
2022/02/06 13:49:08;;;;;;;;;2.00;1.00;;;;;11.31;81.55;100580.16;4972082;28;46198;-79
2022/02/06 13:51:43;;;;;;;;;0.50;0.50;;;;;11.33;81.53;100561.69;4974404;28;45715;-80
2022/02/06 13:58:14;;;;;;;;;2.75;1.00;;;;;11.35;81.97;100536.16;4975846;28;45612;-82
2022/02/06 14:00:56;;;;;;;;;2.00;1.00;;;;;11.38;81.75;100545.59;4973837;28;47016;-79
2022/02/06 14:03:22;;;;;;;;;1.00;1.00;;;;;11.40;81.48;100536.63;4973622;28;45611;-79
2022/02/06 14:05:51;;;;;;;;;0.00;0.00;;;;;11.39;81.93;100526.28;4959360;28;45950;-80
2022/02/06 14:11:58;;;;;;;;;0.00;0.00;;;;;11.46;81.76;100532.72;5058953;28;45861;-81
2022/02/06 14:14:25;;;;;;;;;0.00;0.00;;;;;11.55;82.01;100516.31;5068779;28;45753;-81
2022/02/06 14:16:58;;;;;;;;;0.00;0.00;;;;;11.60;82.08;100533.38;5059645;28;45751;-84
2022/02/06 14:19:41;;;;;;;;;0.75;0.00;;;;;11.64;82.20;100520.84;5058075;28;45672;-81
2022/02/06 14:22:07;;;;;;;;;0.00;0.00;;;;;11.67;81.86;100508.31;5060217;28;45639;-82
2022/02/06 14:27:56;;;;;;;;;0.00;0.00;;;;;11.76;81.17;100517.31;5060074;28;45709;-80
2022/02/06 14:30:30;;;;;;;;;0.00;0.00;;;;;11.79;80.63;100501.31;5055912;28;45640;-79
2022/02/06 14:33:03;;;;;;;;;0.00;0.00;;;;;11.84;80.46;100498.31;5055995;28;46572;-82
2022/02/06 14:35:56;;;;;;;;;0.00;0.00;;;;;11.90;80.37;100511.81;5056715;28;45665;-82
2022/02/06 14:38:25;;;;;;;;;0.00;0.00;;;;;11.94;79.86;100496.63;5055583;28;45486;-82
2022/02/06 14:41:06;;;;;;;;;1.00;0.00;;;;;11.97;79.52;100506.91;5055228;28;45650;-84
2022/02/06 14:43:36;;;;;;;;;0.00;0.00;;;;;12.02;79.29;100504.75;5054094;28;46558;-82
2022/02/06 14:46:02;;;;;;;;;0.00;0.00;;;;;11.88;79.49;100491.88;5053335;28;45687;-83
2022/02/06 14:48:28;;;;;;;;;1.00;0.00;;;;;12.05;79.23;100528.97;5054880;28;45800;-84
2022/02/06 14:50:53;;;;;;;;;0.00;0.00;;;;;12.01;79.28;100518.84;5054096;28;45604;-84
2022/02/06 14:53:20;;;;;;;;;0.00;0.00;;;;;12.02;79.62;100520.50;5054078;28;46241;-83
2022/02/06 14:55:49;;;;;;;;;0.00;0.00;;;;;12.02;79.36;100525.75;5054264;28;45599;-83
2022/02/06 14:58:15;;;;;;;;;0.00;0.00;;;;;12.01;79.90;100511.81;5053493;28;45484;-77
2022/02/06 15:00:42;;;;;;;;;1.50;0.00;;;;;11.82;80.47;100480.09;5053286;28;45522;-73